Weatogue, Connecticut
Current Conditions -  °F | °C
As of 11:51 PM on Thursday 30 Oct 2014 (Local Time) from KBDL Reporting Station
Clear Clear  
Wind Chill: 37°   Ceiling: Unl
Heat Index: 40°   Visibility: 10mi
Dew Point: 33°   Wind: 5mph
Humidity: 77%   Direction: 10°N
Pressure: 30"   Gusts: NA
Location:  41.84°N, 72.83°W
Report Text: KBDL 310351Z 01004KT 10SM CLR 04/01 A3000 RMK AO2 SLP161 T00440006
Loading
Personal Weather Stations






























Interactive Weather Map
Tropical Storm Tracking
New forecast layout! Learn more

10-Day Weather Forecast

Advertisements
Track Severe Weather on mobile